sensor_id;sensor_type;location;lat;lon;timestamp;P1;durP1;ratioP1;P2;durP2;ratioP2
9904;SDS011;4991;43.566;27.820;2023-02-15T00:01:45;17.17;;;10.47;;
9904;SDS011;4991;43.566;27.820;2023-02-15T00:04:15;15.63;;;9.37;;
9904;SDS011;4991;43.566;27.820;2023-02-15T00:06:42;15.13;;;9.97;;
9904;SDS011;4991;43.566;27.820;2023-02-15T00:09:08;16.73;;;10.37;;
9904;SDS011;4991;43.566;27.820;2023-02-15T00:11:35;14.23;;;9.27;;
9904;SDS011;4991;43.566;27.820;2023-02-15T00:14:22;17.17;;;9.33;;
9904;SDS011;4991;43.566;27.820;2023-02-15T00:16:49;11.70;;;7.47;;
9904;SDS011;4991;43.566;27.820;2023-02-15T00:19:17;15.90;;;9.53;;
9904;SDS011;4991;43.566;27.820;2023-02-15T00:21:46;15.80;;;9.40;;
9904;SDS011;4991;43.566;27.820;2023-02-15T00:24:13;20.33;;;10.53;;
9904;SDS011;4991;43.566;27.820;2023-02-15T00:26:40;16.63;;;9.97;;
9904;SDS011;4991;43.566;27.820;2023-02-15T00:29:07;16.97;;;10.13;;
9904;SDS011;4991;43.566;27.820;2023-02-15T00:31:34;18.83;;;10.07;;
9904;SDS011;4991;43.566;27.820;2023-02-15T00:34:10;17.47;;;10.90;;
9904;SDS011;4991;43.566;27.820;2023-02-15T00:36:41;15.33;;;9.13;;
9904;SDS011;4991;43.566;27.820;2023-02-15T00:39:08;15.53;;;10.27;;
9904;SDS011;4991;43.566;27.820;2023-02-15T00:41:34;16.33;;;10.20;;
9904;SDS011;4991;43.566;27.820;2023-02-15T00:44:00;15.33;;;9.73;;
9904;SDS011;4991;43.566;27.820;2023-02-15T00:46:26;16.53;;;10.27;;
9904;SDS011;4991;43.566;27.820;2023-02-15T00:48:52;13.70;;;9.37;;
9904;SDS011;4991;43.566;27.820;2023-02-15T00:51:17;15.97;;;9.27;;
9904;SDS011;4991;43.566;27.820;2023-02-15T00:53:43;14.67;;;9.40;;
9904;SDS011;4991;43.566;27.820;2023-02-15T00:56:10;12.10;;;7.93;;
9904;SDS011;4991;43.566;27.820;2023-02-15T00:58:36;13.33;;;8.10;;
9904;SDS011;4991;43.566;27.820;2023-02-15T01:01:03;16.53;;;10.60;;
9904;SDS011;4991;43.566;27.820;2023-02-15T01:03:34;17.50;;;10.53;;
9904;SDS011;4991;43.566;27.820;2023-02-15T01:06:00;15.63;;;10.33;;
9904;SDS011;4991;43.566;27.820;2023-02-15T01:08:26;19.10;;;10.90;;
9904;SDS011;4991;43.566;27.820;2023-02-15T01:10:53;18.27;;;9.63;;
9904;SDS011;4991;43.566;27.820;2023-02-15T01:13:19;16.33;;;9.63;;
9904;SDS011;4991;43.566;27.820;2023-02-15T01:15:45;19.90;;;11.53;;
9904;SDS011;4991;43.566;27.820;2023-02-15T01:18:10;16.93;;;10.70;;
9904;SDS011;4991;43.566;27.820;2023-02-15T01:20:37;19.33;;;10.83;;
9904;SDS011;4991;43.566;27.820;2023-02-15T01:23:06;14.63;;;10.03;;
9904;SDS011;4991;43.566;27.820;2023-02-15T01:25:33;16.97;;;8.70;;
9904;SDS011;4991;43.566;27.820;2023-02-15T01:28:00;19.07;;;11.27;;
9904;SDS011;4991;43.566;27.820;2023-02-15T01:30:26;15.67;;;9.13;;
9904;SDS011;4991;43.566;27.820;2023-02-15T01:32:52;17.57;;;11.00;;
9904;SDS011;4991;43.566;27.820;2023-02-15T01:35:17;16.93;;;10.43;;
9904;SDS011;4991;43.566;27.820;2023-02-15T01:37:43;17.10;;;10.70;;
9904;SDS011;4991;43.566;27.820;2023-02-15T01:40:12;17.67;;;10.40;;
9904;SDS011;4991;43.566;27.820;2023-02-15T01:42:39;16.27;;;10.17;;
9904;SDS011;4991;43.566;27.820;2023-02-15T01:47:50;16.27;;;10.40;;
9904;SDS011;4991;43.566;27.820;2023-02-15T01:52:58;18.93;;;9.50;;
9904;SDS011;4991;43.566;27.820;2023-02-15T01:55:47;16.40;;;10.57;;
9904;SDS011;4991;43.566;27.820;2023-02-15T01:58:18;18.73;;;10.63;;
9904;SDS011;4991;43.566;27.820;2023-02-15T02:00:46;17.77;;;10.53;;
9904;SDS011;4991;43.566;27.820;2023-02-15T02:03:12;14.37;;;9.77;;
9904;SDS011;4991;43.566;27.820;2023-02-15T02:05:38;17.33;;;11.00;;
9904;SDS011;4991;43.566;27.820;2023-02-15T02:08:05;17.73;;;10.70;;
9904;SDS011;4991;43.566;27.820;2023-02-15T02:10:35;17.90;;;11.37;;
9904;SDS011;4991;43.566;27.820;2023-02-15T02:13:02;12.37;;;7.73;;
9904;SDS011;4991;43.566;27.820;2023-02-15T02:24:40;15.30;;;9.43;;
9904;SDS011;4991;43.566;27.820;2023-02-15T02:27:41;12.70;;;7.17;;
9904;SDS011;4991;43.566;27.820;2023-02-15T02:38:52;13.23;;;8.17;;
9904;SDS011;4991;43.566;27.820;2023-02-15T02:44:10;12.20;;;6.37;;
9904;SDS011;4991;43.566;27.820;2023-02-15T02:49:17;16.20;;;8.77;;
9904;SDS011;4991;43.566;27.820;2023-02-15T02:51:59;11.07;;;6.47;;
9904;SDS011;4991;43.566;27.820;2023-02-15T02:54:25;8.20;;;5.50;;
9904;SDS011;4991;43.566;27.820;2023-02-15T02:56:52;16.40;;;9.40;;
9904;SDS011;4991;43.566;27.820;2023-02-15T02:59:27;13.27;;;8.03;;
9904;SDS011;4991;43.566;27.820;2023-02-15T03:02:05;17.43;;;8.83;;
9904;SDS011;4991;43.566;27.820;2023-02-15T03:04:39;15.93;;;8.93;;
9904;SDS011;4991;43.566;27.820;2023-02-15T03:07:08;12.53;;;6.97;;
9904;SDS011;4991;43.566;27.820;2023-02-15T03:09:44;16.63;;;9.40;;
9904;SDS011;4991;43.566;27.820;2023-02-15T03:14:41;18.30;;;8.90;;
9904;SDS011;4991;43.566;27.820;2023-02-15T03:17:12;12.07;;;7.80;;
9904;SDS011;4991;43.566;27.820;2023-02-15T03:19:39;10.10;;;6.03;;
9904;SDS011;4991;43.566;27.820;2023-02-15T03:22:08;13.53;;;7.50;;
9904;SDS011;4991;43.566;27.820;2023-02-15T03:24:44;14.40;;;7.43;;
9904;SDS011;4991;43.566;27.820;2023-02-15T03:27:34;17.03;;;9.07;;
9904;SDS011;4991;43.566;27.820;2023-02-15T03:30:03;11.07;;;6.37;;
9904;SDS011;4991;43.566;27.820;2023-02-15T03:32:32;17.83;;;8.70;;
9904;SDS011;4991;43.566;27.820;2023-02-15T03:35:00;14.30;;;7.47;;
9904;SDS011;4991;43.566;27.820;2023-02-15T03:40:02;14.53;;;8.13;;
9904;SDS011;4991;43.566;27.820;2023-02-15T03:42:55;13.50;;;8.30;;
9904;SDS011;4991;43.566;27.820;2023-02-15T03:45:29;14.67;;;9.13;;
9904;SDS011;4991;43.566;27.820;2023-02-15T03:47:57;10.60;;;6.03;;
9904;SDS011;4991;43.566;27.820;2023-02-15T03:50:29;9.63;;;5.83;;
9904;SDS011;4991;43.566;27.820;2023-02-15T03:53:17;17.60;;;7.50;;
9904;SDS011;4991;43.566;27.820;2023-02-15T03:55:46;13.00;;;6.50;;
9904;SDS011;4991;43.566;27.820;2023-02-15T03:58:13;11.90;;;6.87;;
9904;SDS011;4991;43.566;27.820;2023-02-15T04:00:58;12.23;;;6.90;;
9904;SDS011;4991;43.566;27.820;2023-02-15T04:03:57;13.67;;;9.07;;
9904;SDS011;4991;43.566;27.820;2023-02-15T04:06:28;17.33;;;8.63;;
9904;SDS011;4991;43.566;27.820;2023-02-15T04:08:53;12.93;;;7.67;;
9904;SDS011;4991;43.566;27.820;2023-02-15T04:11:38;14.47;;;8.80;;
9904;SDS011;4991;43.566;27.820;2023-02-15T04:14:03;13.80;;;8.13;;
9904;SDS011;4991;43.566;27.820;2023-02-15T04:16:49;14.73;;;7.67;;
9904;SDS011;4991;43.566;27.820;2023-02-15T04:19:15;14.90;;;8.97;;
9904;SDS011;4991;43.566;27.820;2023-02-15T04:21:59;14.60;;;9.53;;
9904;SDS011;4991;43.566;27.820;2023-02-15T04:24:43;15.00;;;8.23;;
9904;SDS011;4991;43.566;27.820;2023-02-15T04:27:27;12.83;;;7.27;;
9904;SDS011;4991;43.566;27.820;2023-02-15T04:29:53;21.03;;;9.70;;
9904;SDS011;4991;43.566;27.820;2023-02-15T04:32:19;16.30;;;9.63;;
9904;SDS011;4991;43.566;27.820;2023-02-15T04:34:44;19.90;;;11.10;;
9904;SDS011;4991;43.566;27.820;2023-02-15T04:37:10;16.93;;;9.43;;
9904;SDS011;4991;43.566;27.820;2023-02-15T04:39:36;17.63;;;10.30;;
9904;SDS011;4991;43.566;27.820;2023-02-15T04:42:01;18.03;;;9.40;;
9904;SDS011;4991;43.566;27.820;2023-02-15T04:44:27;17.07;;;9.40;;
9904;SDS011;4991;43.566;27.820;2023-02-15T04:46:52;16.93;;;9.93;;
9904;SDS011;4991;43.566;27.820;2023-02-15T04:49:18;16.10;;;9.03;;
9904;SDS011;4991;43.566;27.820;2023-02-15T04:51:44;16.67;;;8.53;;
9904;SDS011;4991;43.566;27.820;2023-02-15T04:54:09;17.37;;;9.27;;
9904;SDS011;4991;43.566;27.820;2023-02-15T04:56:35;18.57;;;10.93;;
9904;SDS011;4991;43.566;27.820;2023-02-15T04:59:03;13.90;;;8.27;;
9904;SDS011;4991;43.566;27.820;2023-02-15T05:01:28;18.83;;;10.57;;
9904;SDS011;4991;43.566;27.820;2023-02-15T05:03:54;13.57;;;8.40;;
9904;SDS011;4991;43.566;27.820;2023-02-15T05:06:20;15.53;;;9.80;;
9904;SDS011;4991;43.566;27.820;2023-02-15T05:08:46;13.20;;;7.10;;
9904;SDS011;4991;43.566;27.820;2023-02-15T05:11:11;10.90;;;7.17;;
9904;SDS011;4991;43.566;27.820;2023-02-15T05:13:37;14.13;;;8.30;;
9904;SDS011;4991;43.566;27.820;2023-02-15T05:16:03;17.37;;;9.57;;
9904;SDS011;4991;43.566;27.820;2023-02-15T05:18:28;16.07;;;9.43;;
9904;SDS011;4991;43.566;27.820;2023-02-15T05:20:54;18.13;;;9.40;;
9904;SDS011;4991;43.566;27.820;2023-02-15T05:23:19;16.63;;;9.73;;
9904;SDS011;4991;43.566;27.820;2023-02-15T05:25:48;12.23;;;7.67;;
9904;SDS011;4991;43.566;27.820;2023-02-15T05:28:34;19.03;;;9.70;;
9904;SDS011;4991;43.566;27.820;2023-02-15T05:31:06;15.63;;;9.97;;
9904;SDS011;4991;43.566;27.820;2023-02-15T05:33:34;19.57;;;11.47;;
9904;SDS011;4991;43.566;27.820;2023-02-15T05:36:01;19.67;;;10.70;;
9904;SDS011;4991;43.566;27.820;2023-02-15T05:38:27;17.90;;;11.17;;
9904;SDS011;4991;43.566;27.820;2023-02-15T05:40:53;24.70;;;9.97;;
9904;SDS011;4991;43.566;27.820;2023-02-15T05:43:19;15.60;;;9.90;;
9904;SDS011;4991;43.566;27.820;2023-02-15T05:45:45;20.47;;;11.87;;
9904;SDS011;4991;43.566;27.820;2023-02-15T05:48:23;23.97;;;12.40;;
9904;SDS011;4991;43.566;27.820;2023-02-15T05:53:26;24.33;;;13.23;;
9904;SDS011;4991;43.566;27.820;2023-02-15T05:55:52;23.73;;;12.40;;
9904;SDS011;4991;43.566;27.820;2023-02-15T05:58:19;17.90;;;11.13;;
9904;SDS011;4991;43.566;27.820;2023-02-15T06:00:45;17.27;;;9.70;;
9904;SDS011;4991;43.566;27.820;2023-02-15T06:03:12;18.23;;;11.40;;
9904;SDS011;4991;43.566;27.820;2023-02-15T06:05:37;18.73;;;12.37;;
9904;SDS011;4991;43.566;27.820;2023-02-15T06:08:03;19.60;;;12.20;;
9904;SDS011;4991;43.566;27.820;2023-02-15T06:10:28;20.07;;;11.93;;
9904;SDS011;4991;43.566;27.820;2023-02-15T06:12:54;18.73;;;11.13;;
9904;SDS011;4991;43.566;27.820;2023-02-15T06:15:20;18.83;;;10.80;;
9904;SDS011;4991;43.566;27.820;2023-02-15T06:17:46;15.53;;;10.23;;
9904;SDS011;4991;43.566;27.820;2023-02-15T06:20:11;13.50;;;7.93;;
9904;SDS011;4991;43.566;27.820;2023-02-15T06:22:37;13.63;;;9.43;;
9904;SDS011;4991;43.566;27.820;2023-02-15T06:25:03;19.20;;;10.63;;
9904;SDS011;4991;43.566;27.820;2023-02-15T06:27:30;17.87;;;9.90;;
9904;SDS011;4991;43.566;27.820;2023-02-15T06:29:55;21.80;;;11.13;;
9904;SDS011;4991;43.566;27.820;2023-02-15T06:32:21;17.17;;;9.93;;
9904;SDS011;4991;43.566;27.820;2023-02-15T06:34:46;22.80;;;9.13;;
9904;SDS011;4991;43.566;27.820;2023-02-15T06:37:12;22.40;;;10.87;;
9904;SDS011;4991;43.566;27.820;2023-02-15T06:39:38;13.73;;;7.63;;
9904;SDS011;4991;43.566;27.820;2023-02-15T06:42:03;18.03;;;10.67;;
9904;SDS011;4991;43.566;27.820;2023-02-15T06:44:29;18.10;;;11.00;;
9904;SDS011;4991;43.566;27.820;2023-02-15T06:46:54;18.03;;;9.63;;
9904;SDS011;4991;43.566;27.820;2023-02-15T06:49:20;20.77;;;11.30;;
9904;SDS011;4991;43.566;27.820;2023-02-15T06:51:46;17.50;;;10.80;;
9904;SDS011;4991;43.566;27.820;2023-02-15T06:54:11;15.50;;;9.40;;
9904;SDS011;4991;43.566;27.820;2023-02-15T06:56:37;16.77;;;11.63;;
9904;SDS011;4991;43.566;27.820;2023-02-15T06:59:04;14.07;;;8.77;;
9904;SDS011;4991;43.566;27.820;2023-02-15T07:01:29;13.90;;;8.83;;
9904;SDS011;4991;43.566;27.820;2023-02-15T07:03:55;13.10;;;8.20;;
9904;SDS011;4991;43.566;27.820;2023-02-15T07:06:21;14.87;;;8.83;;
9904;SDS011;4991;43.566;27.820;2023-02-15T07:08:46;12.57;;;7.40;;
9904;SDS011;4991;43.566;27.820;2023-02-15T07:11:12;16.63;;;9.83;;
9904;SDS011;4991;43.566;27.820;2023-02-15T07:13:56;15.77;;;9.30;;
9904;SDS011;4991;43.566;27.820;2023-02-15T07:16:22;15.20;;;7.63;;
9904;SDS011;4991;43.566;27.820;2023-02-15T07:18:47;12.07;;;6.30;;
9904;SDS011;4991;43.566;27.820;2023-02-15T07:21:13;16.00;;;8.97;;
9904;SDS011;4991;43.566;27.820;2023-02-15T07:23:38;8.90;;;6.97;;
9904;SDS011;4991;43.566;27.820;2023-02-15T07:26:05;10.47;;;6.30;;
9904;SDS011;4991;43.566;27.820;2023-02-15T07:28:32;11.87;;;7.03;;
9904;SDS011;4991;43.566;27.820;2023-02-15T07:31:00;14.27;;;7.93;;
9904;SDS011;4991;43.566;27.820;2023-02-15T07:33:27;13.40;;;6.67;;
9904;SDS011;4991;43.566;27.820;2023-02-15T07:35:55;7.10;;;5.13;;
9904;SDS011;4991;43.566;27.820;2023-02-15T07:38:23;11.67;;;7.43;;
9904;SDS011;4991;43.566;27.820;2023-02-15T07:40:50;15.07;;;9.10;;
9904;SDS011;4991;43.566;27.820;2023-02-15T07:43:16;14.83;;;9.83;;
9904;SDS011;4991;43.566;27.820;2023-02-15T07:45:41;9.97;;;5.47;;
9904;SDS011;4991;43.566;27.820;2023-02-15T07:48:07;13.63;;;8.60;;
9904;SDS011;4991;43.566;27.820;2023-02-15T07:50:33;11.40;;;7.83;;
9904;SDS011;4991;43.566;27.820;2023-02-15T07:53:01;15.43;;;7.40;;
9904;SDS011;4991;43.566;27.820;2023-02-15T07:55:27;16.40;;;8.40;;
9904;SDS011;4991;43.566;27.820;2023-02-15T07:57:53;12.63;;;7.63;;
9904;SDS011;4991;43.566;27.820;2023-02-15T08:00:19;14.37;;;9.53;;
9904;SDS011;4991;43.566;27.820;2023-02-15T08:02:53;18.73;;;8.40;;
9904;SDS011;4991;43.566;27.820;2023-02-15T08:05:39;13.93;;;8.90;;
9904;SDS011;4991;43.566;27.820;2023-02-15T08:08:06;11.83;;;7.50;;
9904;SDS011;4991;43.566;27.820;2023-02-15T08:10:33;17.37;;;8.67;;
9904;SDS011;4991;43.566;27.820;2023-02-15T08:13:19;16.17;;;9.63;;
9904;SDS011;4991;43.566;27.820;2023-02-15T08:15:48;13.20;;;7.73;;
9904;SDS011;4991;43.566;27.820;2023-02-15T08:18:14;14.83;;;9.33;;
9904;SDS011;4991;43.566;27.820;2023-02-15T08:20:40;11.03;;;6.40;;
9904;SDS011;4991;43.566;27.820;2023-02-15T08:23:06;10.73;;;6.13;;
9904;SDS011;4991;43.566;27.820;2023-02-15T08:25:31;9.07;;;4.67;;
9904;SDS011;4991;43.566;27.820;2023-02-15T08:27:57;11.17;;;6.73;;
9904;SDS011;4991;43.566;27.820;2023-02-15T08:30:22;12.67;;;7.30;;
9904;SDS011;4991;43.566;27.820;2023-02-15T08:32:48;14.60;;;6.23;;
9904;SDS011;4991;43.566;27.820;2023-02-15T08:35:14;11.17;;;7.07;;
9904;SDS011;4991;43.566;27.820;2023-02-15T08:37:41;10.40;;;6.13;;
9904;SDS011;4991;43.566;27.820;2023-02-15T08:40:07;9.67;;;6.47;;
9904;SDS011;4991;43.566;27.820;2023-02-15T08:42:34;11.60;;;6.80;;
9904;SDS011;4991;43.566;27.820;2023-02-15T08:45:00;13.63;;;7.30;;
9904;SDS011;4991;43.566;27.820;2023-02-15T08:47:26;14.20;;;7.10;;
9904;SDS011;4991;43.566;27.820;2023-02-15T08:49:51;8.60;;;5.60;;
9904;SDS011;4991;43.566;27.820;2023-02-15T08:52:17;12.90;;;7.33;;
9904;SDS011;4991;43.566;27.820;2023-02-15T08:54:43;10.10;;;6.70;;
9904;SDS011;4991;43.566;27.820;2023-02-15T08:57:08;7.40;;;4.83;;
9904;SDS011;4991;43.566;27.820;2023-02-15T08:59:35;12.47;;;7.20;;
9904;SDS011;4991;43.566;27.820;2023-02-15T09:02:01;9.70;;;7.23;;
9904;SDS011;4991;43.566;27.820;2023-02-15T09:04:26;19.83;;;9.50;;
9904;SDS011;4991;43.566;27.820;2023-02-15T09:06:53;11.77;;;8.77;;
9904;SDS011;4991;43.566;27.820;2023-02-15T09:09:20;12.97;;;6.50;;
9904;SDS011;4991;43.566;27.820;2023-02-15T09:11:47;11.73;;;7.23;;
9904;SDS011;4991;43.566;27.820;2023-02-15T09:14:16;20.40;;;12.40;;
9904;SDS011;4991;43.566;27.820;2023-02-15T09:16:45;17.40;;;7.83;;
9904;SDS011;4991;43.566;27.820;2023-02-15T09:19:14;14.37;;;9.40;;
9904;SDS011;4991;43.566;27.820;2023-02-15T09:21:40;22.00;;;12.03;;
9904;SDS011;4991;43.566;27.820;2023-02-15T09:24:07;9.83;;;5.80;;
9904;SDS011;4991;43.566;27.820;2023-02-15T09:26:35;12.67;;;7.57;;
9904;SDS011;4991;43.566;27.820;2023-02-15T09:29:02;11.00;;;7.27;;
9904;SDS011;4991;43.566;27.820;2023-02-15T09:31:33;10.27;;;6.67;;
9904;SDS011;4991;43.566;27.820;2023-02-15T09:34:02;11.50;;;5.67;;
9904;SDS011;4991;43.566;27.820;2023-02-15T09:36:32;13.43;;;7.90;;
9904;SDS011;4991;43.566;27.820;2023-02-15T09:50:30;8.93;;;6.57;;
9904;SDS011;4991;43.566;27.820;2023-02-15T10:04:12;10.03;;;4.73;;
9904;SDS011;4991;43.566;27.820;2023-02-15T10:07:10;8.40;;;5.70;;
9904;SDS011;4991;43.566;27.820;2023-02-15T10:15:49;14.80;;;7.17;;
9904;SDS011;4991;43.566;27.820;2023-02-15T10:19:10;9.77;;;7.47;;
9904;SDS011;4991;43.566;27.820;2023-02-15T10:27:15;17.23;;;9.40;;
9904;SDS011;4991;43.566;27.820;2023-02-15T10:29:52;10.30;;;7.20;;
9904;SDS011;4991;43.566;27.820;2023-02-15T10:32:49;11.13;;;7.30;;
9904;SDS011;4991;43.566;27.820;2023-02-15T10:38:35;14.97;;;8.27;;
9904;SDS011;4991;43.566;27.820;2023-02-15T10:58:19;12.63;;;7.33;;
9904;SDS011;4991;43.566;27.820;2023-02-15T11:08:14;12.57;;;8.57;;
9904;SDS011;4991;43.566;27.820;2023-02-15T11:10:46;9.83;;;6.43;;
9904;SDS011;4991;43.566;27.820;2023-02-15T11:13:17;8.03;;;5.33;;
9904;SDS011;4991;43.566;27.820;2023-02-15T11:16:32;12.60;;;8.30;;
9904;SDS011;4991;43.566;27.820;2023-02-15T11:18:44;8.83;;;6.47;;
9904;SDS011;4991;43.566;27.820;2023-02-15T11:21:22;19.10;;;9.53;;
9904;SDS011;4991;43.566;27.820;2023-02-15T11:24:10;14.47;;;8.10;;
9904;SDS011;4991;43.566;27.820;2023-02-15T11:26:43;11.83;;;7.33;;
9904;SDS011;4991;43.566;27.820;2023-02-15T11:31:50;16.07;;;9.53;;
9904;SDS011;4991;43.566;27.820;2023-02-15T11:34:21;19.13;;;10.90;;
9904;SDS011;4991;43.566;27.820;2023-02-15T11:37:10;16.43;;;10.17;;
9904;SDS011;4991;43.566;27.820;2023-02-15T11:39:40;10.03;;;6.67;;
9904;SDS011;4991;43.566;27.820;2023-02-15T11:42:12;10.97;;;8.07;;
9904;SDS011;4991;43.566;27.820;2023-02-15T11:44:49;20.10;;;11.37;;
9904;SDS011;4991;43.566;27.820;2023-02-15T11:47:37;20.43;;;11.90;;
9904;SDS011;4991;43.566;27.820;2023-02-15T11:50:02;13.83;;;10.50;;
9904;SDS011;4991;43.566;27.820;2023-02-15T11:52:28;12.13;;;7.40;;
9904;SDS011;4991;43.566;27.820;2023-02-15T11:54:54;17.20;;;10.90;;
9904;SDS011;4991;43.566;27.820;2023-02-15T11:57:33;22.03;;;13.90;;
9904;SDS011;4991;43.566;27.820;2023-02-15T12:00:42;18.13;;;12.47;;
9904;SDS011;4991;43.566;27.820;2023-02-15T12:03:20;22.60;;;13.50;;
9904;SDS011;4991;43.566;27.820;2023-02-15T12:05:53;14.87;;;11.20;;
9904;SDS011;4991;43.566;27.820;2023-02-15T12:08:24;13.87;;;8.77;;
9904;SDS011;4991;43.566;27.820;2023-02-15T12:16:25;38.27;;;22.63;;
9904;SDS011;4991;43.566;27.820;2023-02-15T12:18:53;26.53;;;15.97;;
9904;SDS011;4991;43.566;27.820;2023-02-15T12:21:26;27.27;;;16.60;;
9904;SDS011;4991;43.566;27.820;2023-02-15T12:23:56;24.10;;;15.10;;
9904;SDS011;4991;43.566;27.820;2023-02-15T12:29:00;19.33;;;11.47;;
9904;SDS011;4991;43.566;27.820;2023-02-15T12:31:41;21.20;;;14.07;;
9904;SDS011;4991;43.566;27.820;2023-02-15T12:34:18;15.67;;;10.43;;
9904;SDS011;4991;43.566;27.820;2023-02-15T12:36:51;18.27;;;10.73;;
9904;SDS011;4991;43.566;27.820;2023-02-15T12:39:29;13.63;;;9.20;;
9904;SDS011;4991;43.566;27.820;2023-02-15T12:44:24;14.17;;;10.20;;
9904;SDS011;4991;43.566;27.820;2023-02-15T12:49:23;14.63;;;10.73;;
9904;SDS011;4991;43.566;27.820;2023-02-15T12:51:53;15.37;;;10.00;;
9904;SDS011;4991;43.566;27.820;2023-02-15T12:54:33;16.57;;;11.77;;
9904;SDS011;4991;43.566;27.820;2023-02-15T12:59:48;16.97;;;10.87;;
9904;SDS011;4991;43.566;27.820;2023-02-15T13:02:59;15.00;;;10.13;;
9904;SDS011;4991;43.566;27.820;2023-02-15T13:05:18;17.03;;;10.83;;
9904;SDS011;4991;43.566;27.820;2023-02-15T13:13:58;18.83;;;10.70;;
9904;SDS011;4991;43.566;27.820;2023-02-15T13:16:30;15.73;;;11.00;;
9904;SDS011;4991;43.566;27.820;2023-02-15T13:19:02;18.83;;;11.20;;
9904;SDS011;4991;43.566;27.820;2023-02-15T13:21:37;15.60;;;10.73;;
9904;SDS011;4991;43.566;27.820;2023-02-15T13:24:10;12.60;;;7.83;;
9904;SDS011;4991;43.566;27.820;2023-02-15T13:26:59;12.43;;;8.80;;
9904;SDS011;4991;43.566;27.820;2023-02-15T13:29:28;10.17;;;7.83;;
9904;SDS011;4991;43.566;27.820;2023-02-15T13:32:42;12.83;;;8.03;;
9904;SDS011;4991;43.566;27.820;2023-02-15T13:34:52;10.03;;;6.77;;
9904;SDS011;4991;43.566;27.820;2023-02-15T13:37:28;13.30;;;9.40;;
9904;SDS011;4991;43.566;27.820;2023-02-15T13:45:57;22.43;;;12.57;;
9904;SDS011;4991;43.566;27.820;2023-02-15T13:53:57;18.10;;;13.20;;
9904;SDS011;4991;43.566;27.820;2023-02-15T13:56:53;19.50;;;12.00;;
9904;SDS011;4991;43.566;27.820;2023-02-15T13:59:50;21.63;;;13.63;;
9904;SDS011;4991;43.566;27.820;2023-02-15T14:02:30;18.33;;;13.17;;
9904;SDS011;4991;43.566;27.820;2023-02-15T14:05:10;14.97;;;10.90;;
9904;SDS011;4991;43.566;27.820;2023-02-15T14:10:34;18.87;;;11.10;;
9904;SDS011;4991;43.566;27.820;2023-02-15T14:16:06;19.43;;;11.60;;
9904;SDS011;4991;43.566;27.820;2023-02-15T14:18:48;17.43;;;11.50;;
9904;SDS011;4991;43.566;27.820;2023-02-15T14:21:34;24.27;;;11.67;;
9904;SDS011;4991;43.566;27.820;2023-02-15T14:24:08;17.27;;;12.40;;
9904;SDS011;4991;43.566;27.820;2023-02-15T14:35:01;23.23;;;13.93;;
9904;SDS011;4991;43.566;27.820;2023-02-15T14:43:48;19.30;;;13.97;;
9904;SDS011;4991;43.566;27.820;2023-02-15T14:49:21;28.27;;;19.50;;
9904;SDS011;4991;43.566;27.820;2023-02-15T15:04:34;28.93;;;18.27;;
9904;SDS011;4991;43.566;27.820;2023-02-15T15:07:07;28.83;;;17.07;;
9904;SDS011;4991;43.566;27.820;2023-02-15T15:09:42;28.47;;;16.17;;
9904;SDS011;4991;43.566;27.820;2023-02-15T15:14:52;25.57;;;13.33;;
9904;SDS011;4991;43.566;27.820;2023-02-15T15:20:04;25.87;;;13.83;;
9904;SDS011;4991;43.566;27.820;2023-02-15T15:22:33;36.57;;;17.00;;
9904;SDS011;4991;43.566;27.820;2023-02-15T15:25:46;33.83;;;17.83;;
9904;SDS011;4991;43.566;27.820;2023-02-15T15:28:05;40.67;;;23.03;;
9904;SDS011;4991;43.566;27.820;2023-02-15T15:49:28;36.37;;;19.87;;
9904;SDS011;4991;43.566;27.820;2023-02-15T15:52:01;66.30;;;30.13;;
9904;SDS011;4991;43.566;27.820;2023-02-15T15:54:28;66.23;;;33.33;;
9904;SDS011;4991;43.566;27.820;2023-02-15T15:56:58;76.80;;;38.63;;
9904;SDS011;4991;43.566;27.820;2023-02-15T15:59:27;87.27;;;40.70;;
9904;SDS011;4991;43.566;27.820;2023-02-15T16:01:55;91.67;;;42.60;;
9904;SDS011;4991;43.566;27.820;2023-02-15T16:04:29;155.03;;;60.43;;
9904;SDS011;4991;43.566;27.820;2023-02-15T16:06:57;111.83;;;48.60;;
9904;SDS011;4991;43.566;27.820;2023-02-15T16:09:38;61.33;;;31.70;;
9904;SDS011;4991;43.566;27.820;2023-02-15T16:12:03;54.83;;;31.37;;
9904;SDS011;4991;43.566;27.820;2023-02-15T16:14:39;44.17;;;26.93;;
9904;SDS011;4991;43.566;27.820;2023-02-15T16:17:08;46.53;;;29.23;;
9904;SDS011;4991;43.566;27.820;2023-02-15T16:19:42;43.50;;;27.43;;
9904;SDS011;4991;43.566;27.820;2023-02-15T16:22:15;51.97;;;31.83;;
9904;SDS011;4991;43.566;27.820;2023-02-15T16:27:51;41.90;;;27.63;;
9904;SDS011;4991;43.566;27.820;2023-02-15T16:30:25;54.00;;;29.80;;
9904;SDS011;4991;43.566;27.820;2023-02-15T16:32:53;58.17;;;30.93;;
9904;SDS011;4991;43.566;27.820;2023-02-15T16:35:29;51.47;;;30.57;;
9904;SDS011;4991;43.566;27.820;2023-02-15T16:37:56;50.80;;;30.30;;
9904;SDS011;4991;43.566;27.820;2023-02-15T16:40:26;59.43;;;28.03;;
9904;SDS011;4991;43.566;27.820;2023-02-15T16:43:06;48.10;;;27.00;;
9904;SDS011;4991;43.566;27.820;2023-02-15T16:45:40;44.60;;;25.93;;
9904;SDS011;4991;43.566;27.820;2023-02-15T16:48:07;52.17;;;27.00;;
9904;SDS011;4991;43.566;27.820;2023-02-15T16:50:39;51.60;;;30.50;;
9904;SDS011;4991;43.566;27.820;2023-02-15T16:53:06;58.17;;;33.37;;
9904;SDS011;4991;43.566;27.820;2023-02-15T16:55:42;62.33;;;36.13;;
9904;SDS011;4991;43.566;27.820;2023-02-15T16:58:13;67.43;;;38.13;;
9904;SDS011;4991;43.566;27.820;2023-02-15T17:00:41;68.40;;;38.43;;
9904;SDS011;4991;43.566;27.820;2023-02-15T17:03:19;65.83;;;36.57;;
9904;SDS011;4991;43.566;27.820;2023-02-15T17:05:51;74.73;;;35.33;;
9904;SDS011;4991;43.566;27.820;2023-02-15T17:13:24;62.80;;;33.63;;
9904;SDS011;4991;43.566;27.820;2023-02-15T17:18:24;70.93;;;36.13;;
9904;SDS011;4991;43.566;27.820;2023-02-15T17:21:12;57.23;;;32.30;;
9904;SDS011;4991;43.566;27.820;2023-02-15T17:23:50;79.87;;;37.03;;
9904;SDS011;4991;43.566;27.820;2023-02-15T17:26:26;67.03;;;35.53;;
9904;SDS011;4991;43.566;27.820;2023-02-15T17:28:59;75.70;;;35.20;;
9904;SDS011;4991;43.566;27.820;2023-02-15T17:31:35;69.03;;;36.10;;
9904;SDS011;4991;43.566;27.820;2023-02-15T17:34:01;72.63;;;37.83;;
9904;SDS011;4991;43.566;27.820;2023-02-15T17:36:28;75.70;;;38.43;;
9904;SDS011;4991;43.566;27.820;2023-02-15T17:38:59;73.90;;;38.43;;
9904;SDS011;4991;43.566;27.820;2023-02-15T17:41:32;77.13;;;42.53;;
9904;SDS011;4991;43.566;27.820;2023-02-15T17:43:59;87.63;;;43.90;;
9904;SDS011;4991;43.566;27.820;2023-02-15T17:46:26;94.47;;;51.50;;
9904;SDS011;4991;43.566;27.820;2023-02-15T17:48:59;95.73;;;49.20;;
9904;SDS011;4991;43.566;27.820;2023-02-15T17:51:25;85.23;;;43.03;;
9904;SDS011;4991;43.566;27.820;2023-02-15T17:53:52;92.40;;;41.87;;
9904;SDS011;4991;43.566;27.820;2023-02-15T17:56:36;73.87;;;41.63;;
9904;SDS011;4991;43.566;27.820;2023-02-15T17:59:03;55.70;;;32.37;;
9904;SDS011;4991;43.566;27.820;2023-02-15T18:01:32;68.03;;;37.97;;
9904;SDS011;4991;43.566;27.820;2023-02-15T18:04:17;63.13;;;33.83;;
9904;SDS011;4991;43.566;27.820;2023-02-15T18:07:02;56.37;;;31.63;;
9904;SDS011;4991;43.566;27.820;2023-02-15T18:09:46;61.03;;;35.90;;
9904;SDS011;4991;43.566;27.820;2023-02-15T18:12:31;53.57;;;31.63;;
9904;SDS011;4991;43.566;27.820;2023-02-15T18:14:59;65.60;;;38.60;;
9904;SDS011;4991;43.566;27.820;2023-02-15T18:17:33;70.50;;;44.43;;
9904;SDS011;4991;43.566;27.820;2023-02-15T18:20:02;82.63;;;49.47;;
9904;SDS011;4991;43.566;27.820;2023-02-15T18:22:30;79.23;;;47.07;;
9904;SDS011;4991;43.566;27.820;2023-02-15T18:24:57;69.23;;;41.53;;
9904;SDS011;4991;43.566;27.820;2023-02-15T18:27:23;74.20;;;42.70;;
9904;SDS011;4991;43.566;27.820;2023-02-15T18:29:49;67.37;;;36.10;;
9904;SDS011;4991;43.566;27.820;2023-02-15T18:32:20;64.37;;;33.87;;